sensor_id;sensor_type;location;lat;lon;timestamp;pressure;altitude;pressure_sealevel;temperature;humidity
76866;BME280;66647;52.124;5.416;2023-04-24T00:01:05;99939.22;;;9.21;92.72
76866;BME280;66647;52.124;5.416;2023-04-24T00:03:35;99942.28;;;9.20;92.35
76866;BME280;66647;52.124;5.416;2023-04-24T00:06:02;99941.47;;;9.19;92.74
76866;BME280;66647;52.124;5.416;2023-04-24T00:08:30;99941.81;;;9.18;92.28
76866;BME280;66647;52.124;5.416;2023-04-24T00:10:57;99941.69;;;9.14;92.52
76866;BME280;66647;52.124;5.416;2023-04-24T00:13:25;99940.44;;;9.12;92.13
76866;BME280;66647;52.124;5.416;2023-04-24T00:15:55;99947.41;;;9.09;92.76
76866;BME280;66647;52.124;5.416;2023-04-24T00:18:25;99946.94;;;9.07;92.94
76866;BME280;66647;52.124;5.416;2023-04-24T00:20:51;99951.72;;;9.10;92.55
76866;BME280;66647;52.124;5.416;2023-04-24T00:23:18;99952.88;;;9.09;93.31
76866;BME280;66647;52.124;5.416;2023-04-24T00:25:46;99958.34;;;9.09;92.87
76866;BME280;66647;52.124;5.416;2023-04-24T00:28:16;99954.00;;;9.08;92.98
76866;BME280;66647;52.124;5.416;2023-04-24T00:30:42;99957.88;;;9.07;93.14
76866;BME280;66647;52.124;5.416;2023-04-24T00:33:09;99956.41;;;9.09;93.18
76866;BME280;66647;52.124;5.416;2023-04-24T00:35:36;99954.34;;;9.06;92.86
76866;BME280;66647;52.124;5.416;2023-04-24T00:38:04;99956.63;;;9.04;92.82
76866;BME280;66647;52.124;5.416;2023-04-24T00:40:33;99958.75;;;8.99;93.19
76866;BME280;66647;52.124;5.416;2023-04-24T00:43:00;99954.75;;;8.96;93.18
76866;BME280;66647;52.124;5.416;2023-04-24T00:45:26;99958.63;;;8.95;92.98
76866;BME280;66647;52.124;5.416;2023-04-24T00:47:53;99960.09;;;8.93;92.83
76866;BME280;66647;52.124;5.416;2023-04-24T00:50:20;99960.09;;;8.93;93.58
76866;BME280;66647;52.124;5.416;2023-04-24T00:52:48;99970.69;;;8.94;93.20
76866;BME280;66647;52.124;5.416;2023-04-24T00:55:15;99974.56;;;8.93;93.56
76866;BME280;66647;52.124;5.416;2023-04-24T00:57:43;99976.16;;;8.94;93.87
76866;BME280;66647;52.124;5.416;2023-04-24T01:00:10;99985.16;;;8.95;93.57
76866;BME280;66647;52.124;5.416;2023-04-24T01:02:45;99980.38;;;8.92;93.39
76866;BME280;66647;52.124;5.416;2023-04-24T01:05:17;99975.38;;;8.94;93.64
76866;BME280;66647;52.124;5.416;2023-04-24T01:07:45;99975.69;;;8.92;93.45
76866;BME280;66647;52.124;5.416;2023-04-24T01:10:13;99981.97;;;8.93;93.84
76866;BME280;66647;52.124;5.416;2023-04-24T01:12:40;99981.16;;;8.92;93.58
76866;BME280;66647;52.124;5.416;2023-04-24T01:15:08;99980.38;;;8.92;93.62
76866;BME280;66647;52.124;5.416;2023-04-24T01:17:34;99981.50;;;8.91;93.65
76866;BME280;66647;52.124;5.416;2023-04-24T01:20:01;99984.22;;;8.91;94.10
76866;BME280;66647;52.124;5.416;2023-04-24T01:22:33;99988.56;;;8.92;94.01
76866;BME280;66647;52.124;5.416;2023-04-24T01:24:59;99998.72;;;8.91;93.86
76866;BME280;66647;52.124;5.416;2023-04-24T01:27:29;99992.91;;;8.93;93.90
76866;BME280;66647;52.124;5.416;2023-04-24T01:29:56;99989.72;;;8.91;93.61
76866;BME280;66647;52.124;5.416;2023-04-24T01:32:23;99992.09;;;8.92;94.40
76866;BME280;66647;52.124;5.416;2023-04-24T01:34:51;99992.91;;;8.93;94.08
76866;BME280;66647;52.124;5.416;2023-04-24T01:37:18;99991.44;;;8.95;94.15
76866;BME280;66647;52.124;5.416;2023-04-24T01:39:45;99993.38;;;8.95;94.81
76866;BME280;66647;52.124;5.416;2023-04-24T01:42:17;99989.50;;;8.96;94.12
76866;BME280;66647;52.124;5.416;2023-04-24T01:44:46;99989.50;;;8.96;93.83
76866;BME280;66647;52.124;5.416;2023-04-24T01:47:13;99997.72;;;8.96;94.12
76866;BME280;66647;52.124;5.416;2023-04-24T01:49:39;99991.91;;;8.97;94.72
76866;BME280;66647;52.124;5.416;2023-04-24T01:52:08;99992.22;;;8.96;94.42
76866;BME280;66647;52.124;5.416;2023-04-24T01:54:36;99992.22;;;8.96;94.21
76866;BME280;66647;52.124;5.416;2023-04-24T01:57:05;100002.38;;;8.95;94.54
76866;BME280;66647;52.124;5.416;2023-04-24T01:59:33;100002.38;;;8.95;94.01
76866;BME280;66647;52.124;5.416;2023-04-24T02:01:59;100003.16;;;8.96;94.16
76866;BME280;66647;52.124;5.416;2023-04-24T02:04:26;99996.56;;;8.97;94.36
76866;BME280;66647;52.124;5.416;2023-04-24T02:06:52;100001.25;;;8.96;94.61
76866;BME280;66647;52.124;5.416;2023-04-24T02:09:19;100000.44;;;8.96;94.75
76866;BME280;66647;52.124;5.416;2023-04-24T02:11:45;100001.56;;;8.95;94.71
76866;BME280;66647;52.124;5.416;2023-04-24T02:14:12;99996.09;;;8.95;95.01
76866;BME280;66647;52.124;5.416;2023-04-24T02:16:39;99997.72;;;8.96;94.44
76866;BME280;66647;52.124;5.416;2023-04-24T02:19:06;100003.50;;;8.94;94.76
76866;BME280;66647;52.124;5.416;2023-04-24T02:21:32;99999.16;;;8.93;94.33
76866;BME280;66647;52.124;5.416;2023-04-24T02:24:00;99995.97;;;8.91;94.38
76866;BME280;66647;52.124;5.416;2023-04-24T02:26:27;99994.03;;;8.92;94.32
76866;BME280;66647;52.124;5.416;2023-04-24T02:28:54;100000.19;;;8.89;94.15
76866;BME280;66647;52.124;5.416;2023-04-24T02:31:21;100000.84;;;8.86;94.31
76866;BME280;66647;52.124;5.416;2023-04-24T02:33:47;99995.84;;;8.88;94.60
76866;BME280;66647;52.124;5.416;2023-04-24T02:36:14;99995.84;;;8.88;94.22
76866;BME280;66647;52.124;5.416;2023-04-24T02:38:40;100001.31;;;8.88;94.28
76866;BME280;66647;52.124;5.416;2023-04-24T02:41:07;100000.19;;;8.89;95.04
76866;BME280;66647;52.124;5.416;2023-04-24T02:43:33;100000.63;;;8.91;94.88
76866;BME280;66647;52.124;5.416;2023-04-24T02:46:00;100002.25;;;8.92;94.87
76866;BME280;66647;52.124;5.416;2023-04-24T02:48:26;99998.25;;;8.89;95.02
76866;BME280;66647;52.124;5.416;2023-04-24T02:50:53;100005.31;;;8.90;94.54
76866;BME280;66647;52.124;5.416;2023-04-24T02:53:20;99997.91;;;8.91;94.34
76866;BME280;66647;52.124;5.416;2023-04-24T02:55:46;100009.97;;;8.90;95.04
76866;BME280;66647;52.124;5.416;2023-04-24T02:58:13;100000.63;;;8.91;94.53
76866;BME280;66647;52.124;5.416;2023-04-24T03:00:40;99998.56;;;8.88;94.84
76866;BME280;66647;52.124;5.416;2023-04-24T03:03:06;99995.84;;;8.88;94.94
76866;BME280;66647;52.124;5.416;2023-04-24T03:05:33;99990.84;;;8.90;94.83
76866;BME280;66647;52.124;5.416;2023-04-24T03:08:00;99997.78;;;8.87;94.41
76866;BME280;66647;52.124;5.416;2023-04-24T03:10:26;99993.44;;;8.86;94.64
76866;BME280;66647;52.124;5.416;2023-04-24T03:12:53;100001.31;;;8.88;95.17
76866;BME280;66647;52.124;5.416;2023-04-24T03:15:21;100003.38;;;8.91;94.76
76866;BME280;66647;52.124;5.416;2023-04-24T03:17:48;100000.19;;;8.89;95.05
76866;BME280;66647;52.124;5.416;2023-04-24T03:20:15;100000.84;;;8.86;94.91
76866;BME280;66647;52.124;5.416;2023-04-24T03:22:42;100001.31;;;8.88;94.60
76866;BME280;66647;52.124;5.416;2023-04-24T03:25:09;99997.44;;;8.89;95.42
76866;BME280;66647;52.124;5.416;2023-04-24T03:27:36;100000.50;;;8.87;95.37
76866;BME280;66647;52.124;5.416;2023-04-24T03:30:16;99996.50;;;8.85;95.18
76866;BME280;66647;52.124;5.416;2023-04-24T03:32:51;100001.19;;;8.84;94.95
76866;BME280;66647;52.124;5.416;2023-04-24T03:35:22;99996.84;;;8.83;95.46
76866;BME280;66647;52.124;5.416;2023-04-24T03:37:49;100001.50;;;8.83;95.34
76866;BME280;66647;52.124;5.416;2023-04-24T03:40:39;99999.56;;;8.83;95.30
76866;BME280;66647;52.124;5.416;2023-04-24T03:43:17;100000.38;;;8.84;94.89
76866;BME280;66647;52.124;5.416;2023-04-24T03:45:45;99998.44;;;8.84;95.25
76866;BME280;66647;52.124;5.416;2023-04-24T03:48:14;99997.31;;;8.85;95.25
76866;BME280;66647;52.124;5.416;2023-04-24T03:50:41;100001.63;;;8.86;95.49
76866;BME280;66647;52.124;5.416;2023-04-24T03:53:10;99998.09;;;8.86;95.54
76866;BME280;66647;52.124;5.416;2023-04-24T03:55:39;99996.97;;;8.87;95.58
76866;BME280;66647;52.124;5.416;2023-04-24T03:58:06;100003.72;;;8.89;95.23
76866;BME280;66647;52.124;5.416;2023-04-24T04:00:32;100003.56;;;8.86;95.10
76866;BME280;66647;52.124;5.416;2023-04-24T04:03:22;100006.66;;;8.84;95.33
76866;BME280;66647;52.124;5.416;2023-04-24T04:05:49;100012.09;;;8.84;95.82
76866;BME280;66647;52.124;5.416;2023-04-24T04:08:16;100014.03;;;8.84;95.32
76866;BME280;66647;52.124;5.416;2023-04-24T04:10:42;100014.50;;;8.86;96.02
76866;BME280;66647;52.124;5.416;2023-04-24T04:13:09;100018.38;;;8.85;96.09
76866;BME280;66647;52.124;5.416;2023-04-24T04:15:36;100026.25;;;8.86;95.25
76866;BME280;66647;52.124;5.416;2023-04-24T04:18:03;100014.50;;;8.86;95.58
76866;BME280;66647;52.124;5.416;2023-04-24T04:20:31;100023.84;;;8.85;96.00
76866;BME280;66647;52.124;5.416;2023-04-24T04:22:57;100022.25;;;8.84;95.83
76866;BME280;66647;52.124;5.416;2023-04-24T04:25:39;100021.44;;;8.83;95.34
76866;BME280;66647;52.124;5.416;2023-04-24T04:28:06;100017.91;;;8.83;95.88
76866;BME280;66647;52.124;5.416;2023-04-24T04:30:39;100027.72;;;8.84;95.68
76866;BME280;66647;52.124;5.416;2023-04-24T04:33:09;100037.38;;;8.81;95.84
76866;BME280;66647;52.124;5.416;2023-04-24T04:35:37;100027.56;;;8.80;95.56
76866;BME280;66647;52.124;5.416;2023-04-24T04:38:03;100035.44;;;8.82;95.39
76866;BME280;66647;52.124;5.416;2023-04-24T04:40:53;100047.19;;;8.82;95.83
76866;BME280;66647;52.124;5.416;2023-04-24T04:43:21;100045.59;;;8.81;95.99
76866;BME280;66647;52.124;5.416;2023-04-24T04:45:51;100048.78;;;8.83;96.07
76866;BME280;66647;52.124;5.416;2023-04-24T04:48:41;100052.78;;;8.86;96.19
76866;BME280;66647;52.124;5.416;2023-04-24T04:51:08;100057.59;;;8.89;96.11
76866;BME280;66647;52.124;5.416;2023-04-24T04:53:35;100055.06;;;8.84;96.16
76866;BME280;66647;52.124;5.416;2023-04-24T04:56:02;100053.44;;;8.83;95.83
76866;BME280;66647;52.124;5.416;2023-04-24T04:58:36;100055.72;;;8.81;95.81
76866;BME280;66647;52.124;5.416;2023-04-24T05:01:04;100064.38;;;8.83;96.02
76866;BME280;66647;52.124;5.416;2023-04-24T05:03:36;100070.66;;;8.83;96.19
76866;BME280;66647;52.124;5.416;2023-04-24T05:06:07;100072.59;;;8.83;96.56
76866;BME280;66647;52.124;5.416;2023-04-24T05:08:36;100076.91;;;8.84;95.92
76866;BME280;66647;52.124;5.416;2023-04-24T05:11:06;100090.13;;;8.82;96.52
76866;BME280;66647;52.124;5.416;2023-04-24T05:13:32;100090.13;;;8.82;95.86
76866;BME280;66647;52.124;5.416;2023-04-24T05:16:26;100080.31;;;8.81;96.19
76866;BME280;66647;52.124;5.416;2023-04-24T05:18:54;100089.00;;;8.83;96.14
76866;BME280;66647;52.124;5.416;2023-04-24T05:21:26;100095.72;;;8.85;96.12
76866;BME280;66647;52.124;5.416;2023-04-24T05:23:53;100098.94;;;8.87;96.19
76866;BME280;66647;52.124;5.416;2023-04-24T05:26:41;100101.66;;;8.87;96.52
76866;BME280;66647;52.124;5.416;2023-04-24T05:29:08;100104.53;;;8.91;96.58
76866;BME280;66647;52.124;5.416;2023-04-24T05:31:35;100109.06;;;8.87;95.97
76866;BME280;66647;52.124;5.416;2023-04-24T05:34:04;100111.94;;;8.90;96.13
76866;BME280;66647;52.124;5.416;2023-04-24T05:36:32;100114.81;;;8.94;96.24
76866;BME280;66647;52.124;5.416;2023-04-24T05:38:58;100119.16;;;8.95;96.52
76866;BME280;66647;52.124;5.416;2023-04-24T05:41:25;100128.47;;;8.94;96.56
76866;BME280;66647;52.124;5.416;2023-04-24T05:43:52;100143.63;;;8.91;95.85
76866;BME280;66647;52.124;5.416;2023-04-24T05:46:20;100143.47;;;8.88;96.08
76866;BME280;66647;52.124;5.416;2023-04-24T05:48:46;100144.94;;;8.85;96.43
76866;BME280;66647;52.124;5.416;2023-04-24T05:51:14;100149.59;;;8.85;96.72
76866;BME280;66647;52.124;5.416;2023-04-24T05:53:41;100148.81;;;8.84;96.40
76866;BME280;66647;52.124;5.416;2023-04-24T05:56:08;100144.78;;;8.82;95.94
76866;BME280;66647;52.124;5.416;2023-04-24T05:58:35;100154.44;;;8.79;96.48
76866;BME280;66647;52.124;5.416;2023-04-24T06:01:04;100171.88;;;8.74;96.75
76866;BME280;66647;52.124;5.416;2023-04-24T06:03:31;100167.06;;;8.71;96.49
76866;BME280;66647;52.124;5.416;2023-04-24T06:06:02;100175.91;;;8.68;96.33
76866;BME280;66647;52.124;5.416;2023-04-24T06:08:29;100182.03;;;8.65;97.31
76866;BME280;66647;52.124;5.416;2023-04-24T06:10:55;100176.44;;;8.62;97.00
76866;BME280;66647;52.124;5.416;2023-04-24T06:13:22;100189.94;;;8.58;97.18
76866;BME280;66647;52.124;5.416;2023-04-24T06:16:09;100193.34;;;8.55;96.68
76866;BME280;66647;52.124;5.416;2023-04-24T06:18:38;100199.94;;;8.54;97.23
76866;BME280;66647;52.124;5.416;2023-04-24T06:21:05;100209.25;;;8.53;97.36
76866;BME280;66647;52.124;5.416;2023-04-24T06:23:32;100207.50;;;8.49;97.36
76866;BME280;66647;52.124;5.416;2023-04-24T06:25:59;100208.94;;;8.46;96.92
76866;BME280;66647;52.124;5.416;2023-04-24T06:28:26;100213.28;;;8.47;97.07
76866;BME280;66647;52.124;5.416;2023-04-24T06:30:52;100215.09;;;8.43;97.33
76866;BME280;66647;52.124;5.416;2023-04-24T06:33:19;100227.81;;;8.39;97.35
76866;BME280;66647;52.124;5.416;2023-04-24T06:35:48;100237.59;;;8.40;96.96
76866;BME280;66647;52.124;5.416;2023-04-24T06:38:14;100237.13;;;8.38;97.13
76866;BME280;66647;52.124;5.416;2023-04-24T06:40:42;100246.44;;;8.37;96.97
76866;BME280;66647;52.124;5.416;2023-04-24T06:43:14;100253.16;;;8.31;97.55
76866;BME280;66647;52.124;5.416;2023-04-24T06:45:44;100254.47;;;8.25;97.83
76866;BME280;66647;52.124;5.416;2023-04-24T06:48:11;100258.66;;;8.22;97.40
76866;BME280;66647;52.124;5.416;2023-04-24T06:50:38;100269.41;;;8.19;97.23
76866;BME280;66647;52.124;5.416;2023-04-24T06:53:04;100274.72;;;8.15;97.13
76866;BME280;66647;52.124;5.416;2023-04-24T06:55:31;100281.78;;;8.16;97.44
76866;BME280;66647;52.124;5.416;2023-04-24T06:57:59;100286.44;;;8.16;97.33
76866;BME280;66647;52.124;5.416;2023-04-24T07:00:26;100294.16;;;8.14;97.04
76866;BME280;66647;52.124;5.416;2023-04-24T07:03:00;100298.00;;;8.13;97.59
76866;BME280;66647;52.124;5.416;2023-04-24T07:05:27;100304.16;;;8.09;97.53
76866;BME280;66647;52.124;5.416;2023-04-24T07:07:54;100311.06;;;8.07;97.96
76866;BME280;66647;52.124;5.416;2023-04-24T07:10:20;100310.56;;;8.05;97.39
76866;BME280;66647;52.124;5.416;2023-04-24T07:12:47;100319.56;;;8.05;97.22
76866;BME280;66647;52.124;5.416;2023-04-24T07:15:14;100333.06;;;8.02;97.63
76866;BME280;66647;52.124;5.416;2023-04-24T07:17:40;100329.53;;;8.01;98.09
76866;BME280;66647;52.124;5.416;2023-04-24T07:20:23;100342.84;;;7.94;97.53
76866;BME280;66647;52.124;5.416;2023-04-24T07:22:51;100354.56;;;7.95;97.82
76866;BME280;66647;52.124;5.416;2023-04-24T07:25:20;100358.72;;;7.92;97.60
76866;BME280;66647;52.124;5.416;2023-04-24T07:27:46;100364.34;;;7.87;97.32
76866;BME280;66647;52.124;5.416;2023-04-24T07:30:14;100363.84;;;7.85;97.68
76866;BME280;66647;52.124;5.416;2023-04-24T07:32:41;100381.03;;;7.86;97.46
76866;BME280;66647;52.124;5.416;2023-04-24T07:35:08;100376.22;;;7.83;97.56
76866;BME280;66647;52.124;5.416;2023-04-24T07:37:36;100385.69;;;7.85;96.94
76866;BME280;66647;52.124;5.416;2023-04-24T07:40:02;100387.78;;;7.88;96.93
76866;BME280;66647;52.124;5.416;2023-04-24T07:42:30;100393.56;;;7.87;97.69
76866;BME280;66647;52.124;5.416;2023-04-24T07:45:00;100409.13;;;7.86;96.96
76866;BME280;66647;52.124;5.416;2023-04-24T07:47:27;100420.06;;;7.86;96.91
76866;BME280;66647;52.124;5.416;2023-04-24T07:49:53;100418.13;;;7.87;97.28
76866;BME280;66647;52.124;5.416;2023-04-24T07:52:20;100423.28;;;7.88;97.24
76866;BME280;66647;52.124;5.416;2023-04-24T07:54:47;100430.97;;;7.86;97.71
76866;BME280;66647;52.124;5.416;2023-04-24T07:57:16;100429.06;;;7.87;97.43
76866;BME280;66647;52.124;5.416;2023-04-24T07:59:43;100433.56;;;7.91;97.13
76866;BME280;66647;52.124;5.416;2023-04-24T08:02:09;100439.50;;;7.93;96.91
76866;BME280;66647;52.124;5.416;2023-04-24T08:04:39;100442.41;;;7.97;96.74
76866;BME280;66647;52.124;5.416;2023-04-24T08:07:06;100441.47;;;8.01;97.30
76866;BME280;66647;52.124;5.416;2023-04-24T08:09:55;100452.88;;;8.03;97.15
76866;BME280;66647;52.124;5.416;2023-04-24T08:12:22;100459.78;;;8.01;96.91
76866;BME280;66647;52.124;5.416;2023-04-24T08:14:50;100468.28;;;7.99;96.87
76866;BME280;66647;52.124;5.416;2023-04-24T08:17:17;100473.75;;;7.99;97.09
76866;BME280;66647;52.124;5.416;2023-04-24T08:19:44;100482.06;;;7.94;97.61
76866;BME280;66647;52.124;5.416;2023-04-24T08:22:15;100490.41;;;7.89;97.49
76866;BME280;66647;52.124;5.416;2023-04-24T08:24:44;100494.88;;;7.85;96.82
76866;BME280;66647;52.124;5.416;2023-04-24T08:27:10;100504.19;;;7.84;97.69
76866;BME280;66647;52.124;5.416;2023-04-24T08:29:38;100511.75;;;7.79;96.64
76866;BME280;66647;52.124;5.416;2023-04-24T08:32:22;100518.91;;;7.66;96.27
76866;BME280;66647;52.124;5.416;2023-04-24T08:34:49;100528.19;;;7.65;96.88
76866;BME280;66647;52.124;5.416;2023-04-24T08:37:16;100526.16;;;7.70;96.99
76866;BME280;66647;52.124;5.416;2023-04-24T08:39:43;100528.25;;;7.73;97.83
76866;BME280;66647;52.124;5.416;2023-04-24T08:42:11;100534.03;;;7.81;97.19
76866;BME280;66647;52.124;5.416;2023-04-24T08:44:38;100545.50;;;7.91;97.16
76866;BME280;66647;52.124;5.416;2023-04-24T08:47:04;100542.00;;;7.99;96.88
76866;BME280;66647;52.124;5.416;2023-04-24T08:49:32;100535.09;;;8.02;97.38
76866;BME280;66647;52.124;5.416;2023-04-24T08:52:00;100540.72;;;8.05;96.61
76866;BME280;66647;52.124;5.416;2023-04-24T08:54:28;100561.47;;;8.06;96.83
76866;BME280;66647;52.124;5.416;2023-04-24T08:56:59;100561.31;;;8.12;96.34
76866;BME280;66647;52.124;5.416;2023-04-24T08:59:36;100561.31;;;8.20;96.39
76866;BME280;66647;52.124;5.416;2023-04-24T09:02:04;100568.41;;;8.21;95.08
76866;BME280;66647;52.124;5.416;2023-04-24T09:04:33;100570.63;;;8.19;95.34
76866;BME280;66647;52.124;5.416;2023-04-24T09:07:01;100579.16;;;8.18;94.38
76866;BME280;66647;52.124;5.416;2023-04-24T09:09:30;100584.44;;;8.14;93.36
76866;BME280;66647;52.124;5.416;2023-04-24T09:11:59;100579.16;;;8.09;93.21
76866;BME280;66647;52.124;5.416;2023-04-24T09:14:27;100591.69;;;8.10;93.74
76866;BME280;66647;52.124;5.416;2023-04-24T09:16:54;100593.59;;;8.09;93.55
76866;BME280;66647;52.124;5.416;2023-04-24T09:19:20;100584.13;;;8.16;93.44
76866;BME280;66647;52.124;5.416;2023-04-24T09:21:48;100594.28;;;8.24;92.97
76866;BME280;66647;52.124;5.416;2023-04-24T09:24:18;100598.88;;;8.37;92.58
76866;BME280;66647;52.124;5.416;2023-04-24T09:26:47;100603.69;;;8.49;92.83
76866;BME280;66647;52.124;5.416;2023-04-24T09:29:17;100611.78;;;8.62;92.15
76866;BME280;66647;52.124;5.416;2023-04-24T09:31:45;100615.81;;;8.82;92.37
76866;BME280;66647;52.124;5.416;2023-04-24T09:34:12;100616.97;;;8.98;92.16
76866;BME280;66647;52.124;5.416;2023-04-24T09:36:41;100624.38;;;9.15;92.37
76866;BME280;66647;52.124;5.416;2023-04-24T09:39:11;100623.56;;;9.23;90.40
76866;BME280;66647;52.124;5.416;2023-04-24T09:41:56;100629.38;;;9.30;91.05
76866;BME280;66647;52.124;5.416;2023-04-24T09:44:26;100626.63;;;9.48;90.34
76866;BME280;66647;52.124;5.416;2023-04-24T09:46:55;100631.75;;;9.58;89.76
76866;BME280;66647;52.124;5.416;2023-04-24T09:49:29;100636.75;;;9.56;88.70
76866;BME280;66647;52.124;5.416;2023-04-24T09:52:08;100647.56;;;9.26;85.87
76866;BME280;66647;52.124;5.416;2023-04-24T09:54:35;100652.69;;;9.02;86.18
76866;BME280;66647;52.124;5.416;2023-04-24T09:57:03;100661.66;;;8.85;86.32
76866;BME280;66647;52.124;5.416;2023-04-24T09:59:30;100658.94;;;8.77;86.20
76866;BME280;66647;52.124;5.416;2023-04-24T10:01:57;100668.41;;;8.70;87.25
76866;BME280;66647;52.124;5.416;2023-04-24T10:04:27;100668.41;;;8.70;87.50
76866;BME280;66647;52.124;5.416;2023-04-24T10:06:55;100674.03;;;8.74;87.38
76866;BME280;66647;52.124;5.416;2023-04-24T10:09:25;100667.44;;;8.84;85.75
76866;BME280;66647;52.124;5.416;2023-04-24T10:11:53;100671.66;;;8.90;87.00
76866;BME280;66647;52.124;5.416;2023-04-24T10:14:22;100672.00;;;8.97;86.83
76866;BME280;66647;52.124;5.416;2023-04-24T10:17:01;100685.19;;;9.12;87.13
76866;BME280;66647;52.124;5.416;2023-04-24T10:19:29;100688.75;;;9.21;86.38
76866;BME280;66647;52.124;5.416;2023-04-24T10:22:03;100683.44;;;9.25;85.22
76866;BME280;66647;52.124;5.416;2023-04-24T10:24:33;100691.50;;;9.21;84.60
76866;BME280;66647;52.124;5.416;2023-04-24T10:27:01;100696.31;;;9.16;84.67
76866;BME280;66647;52.124;5.416;2023-04-24T10:29:31;100691.00;;;9.02;83.82
76866;BME280;66647;52.124;5.416;2023-04-24T10:31:57;100701.13;;;9.01;85.11
76866;BME280;66647;52.124;5.416;2023-04-24T10:34:24;100691.97;;;9.23;83.97
76866;BME280;66647;52.124;5.416;2023-04-24T10:36:54;100701.81;;;9.41;83.54
76866;BME280;66647;52.124;5.416;2023-04-24T10:39:23;100697.13;;;9.51;83.77
76866;BME280;66647;52.124;5.416;2023-04-24T10:41:53;100702.94;;;9.58;82.22
76866;BME280;66647;52.124;5.416;2023-04-24T10:44:22;100698.41;;;9.88;83.65
76866;BME280;66647;52.124;5.416;2023-04-24T10:46:53;100706.44;;;10.01;82.09
76866;BME280;66647;52.124;5.416;2023-04-24T10:49:30;100709.47;;;10.08;81.92
76866;BME280;66647;52.124;5.416;2023-04-24T10:52:02;100710.31;;;10.00;81.15
76866;BME280;66647;52.124;5.416;2023-04-24T10:54:34;100724.81;;;9.84;78.67
76866;BME280;66647;52.124;5.416;2023-04-24T10:59:47;100724.19;;;9.61;81.43
76866;BME280;66647;52.124;5.416;2023-04-24T11:02:14;100725.31;;;9.60;81.57
76866;BME280;66647;52.124;5.416;2023-04-24T11:04:42;100732.25;;;9.57;81.59
76866;BME280;66647;52.124;5.416;2023-04-24T11:07:10;100727.56;;;9.49;83.19
76866;BME280;66647;52.124;5.416;2023-04-24T11:09:37;100733.84;;;9.50;82.90
76866;BME280;66647;52.124;5.416;2023-04-24T11:12:08;100733.84;;;9.41;82.77
76866;BME280;66647;52.124;5.416;2023-04-24T11:17:34;100748.00;;;9.26;82.53
76866;BME280;66647;52.124;5.416;2023-04-24T11:20:09;100759.38;;;9.10;83.51
76866;BME280;66647;52.124;5.416;2023-04-24T11:22:54;100765.59;;;8.94;85.57
76866;BME280;66647;52.124;5.416;2023-04-24T11:25:21;100780.03;;;8.86;87.09
76866;BME280;66647;52.124;5.416;2023-04-24T11:28:03;100769.59;;;8.88;86.72
76866;BME280;66647;52.124;5.416;2023-04-24T11:30:31;100777.00;;;8.87;87.70
76866;BME280;66647;52.124;5.416;2023-04-24T11:33:02;100769.50;;;9.10;88.21
76866;BME280;66647;52.124;5.416;2023-04-24T11:35:29;100773.63;;;9.64;88.23
76866;BME280;66647;52.124;5.416;2023-04-24T11:38:02;100767.34;;;10.33;87.47
76866;BME280;66647;52.124;5.416;2023-04-24T11:40:49;100776.50;;;10.84;86.65
76866;BME280;66647;52.124;5.416;2023-04-24T11:43:16;100772.34;;;10.77;81.98
76866;BME280;66647;52.124;5.416;2023-04-24T11:45:49;100773.53;;;10.68;81.94
76866;BME280;66647;52.124;5.416;2023-04-24T11:48:20;100778.69;;;10.61;80.45
76866;BME280;66647;52.124;5.416;2023-04-24T11:50:50;100776.28;;;10.59;80.48
76866;BME280;66647;52.124;5.416;2023-04-24T11:53:22;100783.59;;;10.85;78.96
76866;BME280;66647;52.124;5.416;2023-04-24T11:55:48;100786.88;;;11.07;79.27
76866;BME280;66647;52.124;5.416;2023-04-24T11:58:20;100796.03;;;11.20;76.59
76866;BME280;66647;52.124;5.416;2023-04-24T12:00:55;100795.06;;;11.16;77.52
76866;BME280;66647;52.124;5.416;2023-04-24T12:03:25;100796.94;;;11.33;76.45
76866;BME280;66647;52.124;5.416;2023-04-24T12:05:52;100796.59;;;11.34;76.15
76866;BME280;66647;52.124;5.416;2023-04-24T12:08:28;100806.34;;;11.23;76.93
76866;BME280;66647;52.124;5.416;2023-04-24T12:10:55;100810.34;;;10.96;76.05
76866;BME280;66647;52.124;5.416;2023-04-24T12:13:21;100813.47;;;10.77;76.28
76866;BME280;66647;52.124;5.416;2023-04-24T12:15:52;100812.25;;;10.66;76.79
76866;BME280;66647;52.124;5.416;2023-04-24T12:18:25;100818.56;;;10.50;76.35
76866;BME280;66647;52.124;5.416;2023-04-24T12:20:52;100825.00;;;10.54;78.52
76866;BME280;66647;52.124;5.416;2023-04-24T12:23:34;100830.81;;;10.52;76.67
76866;BME280;66647;52.124;5.416;2023-04-24T12:26:04;100822.28;;;10.45;77.22
76866;BME280;66647;52.124;5.416;2023-04-24T12:28:36;100837.47;;;10.34;76.38
76866;BME280;66647;52.124;5.416;2023-04-24T12:31:03;100836.81;;;10.28;76.64
76866;BME280;66647;52.124;5.416;2023-04-24T12:33:34;100830.66;;;10.40;77.07
76866;BME280;66647;52.124;5.416;2023-04-24T12:36:01;100830.88;;;10.82;75.79
76866;BME280;66647;52.124;5.416;2023-04-24T12:38:28;100835.00;;;11.05;73.33
76866;BME280;66647;52.124;5.416;2023-04-24T12:41:08;100836.97;;;11.04;74.03
76866;BME280;66647;52.124;5.416;2023-04-24T12:43:35;100837.81;;;10.88;73.76
76866;BME280;66647;52.124;5.416;2023-04-24T12:46:03;100848.53;;;10.63;73.08
76866;BME280;66647;52.124;5.416;2023-04-24T12:48:30;100850.19;;;10.38;73.62
76866;BME280;66647;52.124;5.416;2023-04-24T12:50:58;100867.44;;;10.30;74.51
76866;BME280;66647;52.124;5.416;2023-04-24T12:53:28;100856.63;;;10.17;71.19
76866;BME280;66647;52.124;5.416;2023-04-24T12:55:56;100864.19;;;10.11;73.49
76866;BME280;66647;52.124;5.416;2023-04-24T12:58:22;100866.44;;;10.09;74.30
76866;BME280;66647;52.124;5.416;2023-04-24T13:00:49;100871.47;;;10.07;74.49
76866;BME280;66647;52.124;5.416;2023-04-24T13:03:16;100880.00;;;10.05;75.64
76866;BME280;66647;52.124;5.416;2023-04-24T13:05:43;100884.03;;;9.99;75.91
76866;BME280;66647;52.124;5.416;2023-04-24T13:08:12;100886.09;;;9.94;76.46
76866;BME280;66647;52.124;5.416;2023-04-24T13:10:39;100894.13;;;9.82;77.89
76866;BME280;66647;52.124;5.416;2023-04-24T13:13:06;100888.97;;;9.80;76.61
76866;BME280;66647;52.124;5.416;2023-04-24T13:15:33;100901.69;;;9.76;76.92
76866;BME280;66647;52.124;5.416;2023-04-24T13:18:00;100887.38;;;9.88;77.74